sensor_id;sensor_type;location;lat;lon;timestamp;pressure;altitude;pressure_sealevel;temperature;humidity
45071;BME280;30836;48.906;9.140;2023-04-25T00:00:27;980.20;;;16.29;46.52
45071;BME280;30836;48.906;9.140;2023-04-25T00:01:27;980.18;;;16.26;46.63
45071;BME280;30836;48.906;9.140;2023-04-25T00:02:28;980.18;;;16.22;46.72
45071;BME280;30836;48.906;9.140;2023-04-25T00:03:28;980.20;;;16.22;46.71
45071;BME280;30836;48.906;9.140;2023-04-25T00:04:29;980.20;;;16.25;46.67
45071;BME280;30836;48.906;9.140;2023-04-25T00:05:29;980.20;;;16.27;46.50
45071;BME280;30836;48.906;9.140;2023-04-25T00:06:30;980.18;;;16.28;46.51
45071;BME280;30836;48.906;9.140;2023-04-25T00:07:30;980.22;;;16.27;46.58
45071;BME280;30836;48.906;9.140;2023-04-25T00:08:31;980.20;;;16.26;46.62
45071;BME280;30836;48.906;9.140;2023-04-25T00:09:32;980.18;;;16.25;46.73
45071;BME280;30836;48.906;9.140;2023-04-25T00:10:32;980.14;;;16.23;46.85
45071;BME280;30836;48.906;9.140;2023-04-25T00:11:33;980.12;;;16.21;46.96
45071;BME280;30836;48.906;9.140;2023-04-25T00:12:34;980.12;;;16.19;47.03
45071;BME280;30836;48.906;9.140;2023-04-25T00:13:34;980.12;;;16.19;47.01
45071;BME280;30836;48.906;9.140;2023-04-25T00:14:34;980.14;;;16.22;46.94
45071;BME280;30836;48.906;9.140;2023-04-25T00:15:35;980.12;;;16.26;46.81
45071;BME280;30836;48.906;9.140;2023-04-25T00:16:35;980.10;;;16.32;46.72
45071;BME280;30836;48.906;9.140;2023-04-25T00:17:36;980.08;;;16.37;46.64
45071;BME280;30836;48.906;9.140;2023-04-25T00:18:36;980.10;;;16.41;46.65
45071;BME280;30836;48.906;9.140;2023-04-25T00:19:36;980.06;;;16.44;46.48
45071;BME280;30836;48.906;9.140;2023-04-25T00:20:37;980.08;;;16.47;46.40
45071;BME280;30836;48.906;9.140;2023-04-25T00:21:37;980.08;;;16.50;46.38
45071;BME280;30836;48.906;9.140;2023-04-25T00:22:38;980.12;;;16.53;46.45
45071;BME280;30836;48.906;9.140;2023-04-25T00:23:38;980.08;;;16.55;46.53
45071;BME280;30836;48.906;9.140;2023-04-25T00:24:39;980.10;;;16.57;46.51
45071;BME280;30836;48.906;9.140;2023-04-25T00:25:39;980.10;;;16.59;46.56
45071;BME280;30836;48.906;9.140;2023-04-25T00:26:40;980.06;;;16.62;46.60
45071;BME280;30836;48.906;9.140;2023-04-25T00:27:40;980.10;;;16.65;46.54
45071;BME280;30836;48.906;9.140;2023-04-25T00:28:40;980.06;;;16.69;46.45
45071;BME280;30836;48.906;9.140;2023-04-25T00:29:41;980.08;;;16.72;46.30
45071;BME280;30836;48.906;9.140;2023-04-25T00:30:42;980.10;;;16.75;46.22
45071;BME280;30836;48.906;9.140;2023-04-25T00:31:43;980.14;;;16.77;46.08
45071;BME280;30836;48.906;9.140;2023-04-25T00:32:43;980.16;;;16.78;46.06
45071;BME280;30836;48.906;9.140;2023-04-25T00:33:43;980.16;;;16.76;46.14
45071;BME280;30836;48.906;9.140;2023-04-25T00:34:44;980.22;;;16.70;46.30
45071;BME280;30836;48.906;9.140;2023-04-25T00:35:44;980.25;;;16.61;46.36
45071;BME280;30836;48.906;9.140;2023-04-25T00:36:45;980.22;;;16.48;46.73
45071;BME280;30836;48.906;9.140;2023-04-25T00:37:45;980.22;;;16.37;46.90
45071;BME280;30836;48.906;9.140;2023-04-25T00:38:46;980.20;;;16.31;47.05
45071;BME280;30836;48.906;9.140;2023-04-25T00:39:46;980.22;;;16.28;47.12
45071;BME280;30836;48.906;9.140;2023-04-25T00:40:47;980.20;;;16.22;47.29
45071;BME280;30836;48.906;9.140;2023-04-25T00:41:47;980.22;;;16.16;47.49
45071;BME280;30836;48.906;9.140;2023-04-25T00:42:48;980.20;;;16.15;47.35
45071;BME280;30836;48.906;9.140;2023-04-25T00:43:49;980.20;;;16.14;47.45
45071;BME280;30836;48.906;9.140;2023-04-25T00:44:51;980.18;;;16.13;47.26
45071;BME280;30836;48.906;9.140;2023-04-25T00:45:52;980.18;;;16.15;47.21
45071;BME280;30836;48.906;9.140;2023-04-25T00:46:53;980.14;;;16.16;47.14
45071;BME280;30836;48.906;9.140;2023-04-25T00:47:54;980.10;;;16.18;47.12
45071;BME280;30836;48.906;9.140;2023-04-25T00:48:55;980.08;;;16.19;47.19
45071;BME280;30836;48.906;9.140;2023-04-25T00:49:55;980.08;;;16.18;47.22
45071;BME280;30836;48.906;9.140;2023-04-25T00:50:57;980.06;;;16.16;47.29
45071;BME280;30836;48.906;9.140;2023-04-25T00:51:58;980.04;;;16.15;47.14
45071;BME280;30836;48.906;9.140;2023-04-25T00:52:59;980.04;;;16.15;47.30
45071;BME280;30836;48.906;9.140;2023-04-25T00:54:01;980.00;;;16.15;47.22
45071;BME280;30836;48.906;9.140;2023-04-25T00:55:01;980.00;;;16.17;47.22
45071;BME280;30836;48.906;9.140;2023-04-25T00:56:02;979.98;;;16.20;46.99
45071;BME280;30836;48.906;9.140;2023-04-25T00:57:03;979.98;;;16.21;47.10
45071;BME280;30836;48.906;9.140;2023-04-25T00:58:03;979.96;;;16.17;47.43
45071;BME280;30836;48.906;9.140;2023-04-25T00:59:04;979.92;;;16.12;47.45
45071;BME280;30836;48.906;9.140;2023-04-25T01:00:05;979.86;;;16.08;47.65
45071;BME280;30836;48.906;9.140;2023-04-25T01:01:07;979.86;;;16.07;47.49
45071;BME280;30836;48.906;9.140;2023-04-25T01:01:17;979.82;;;16.16;47.42
45071;BME280;30836;48.906;9.140;2023-04-25T01:02:18;979.82;;;16.20;47.00
45071;BME280;30836;48.906;9.140;2023-04-25T01:03:19;979.80;;;16.25;46.98
45071;BME280;30836;48.906;9.140;2023-04-25T01:04:19;979.82;;;16.28;46.97
45071;BME280;30836;48.906;9.140;2023-04-25T01:05:20;979.82;;;16.26;47.01
45071;BME280;30836;48.906;9.140;2023-04-25T01:06:20;979.84;;;16.25;46.99
45071;BME280;30836;48.906;9.140;2023-04-25T01:07:21;979.82;;;16.21;47.22
45071;BME280;30836;48.906;9.140;2023-04-25T01:08:23;979.82;;;16.17;47.24
45071;BME280;30836;48.906;9.140;2023-04-25T01:09:24;979.84;;;16.13;47.35
45071;BME280;30836;48.906;9.140;2023-04-25T01:10:25;979.82;;;16.11;47.47
45071;BME280;30836;48.906;9.140;2023-04-25T01:11:26;979.82;;;16.10;47.47
45071;BME280;30836;48.906;9.140;2023-04-25T01:12:26;979.80;;;16.10;47.53
45071;BME280;30836;48.906;9.140;2023-04-25T01:13:27;979.78;;;16.10;47.55
45071;BME280;30836;48.906;9.140;2023-04-25T01:14:28;979.80;;;16.11;47.52
45071;BME280;30836;48.906;9.140;2023-04-25T01:15:29;979.82;;;16.09;47.80
45071;BME280;30836;48.906;9.140;2023-04-25T01:16:29;979.80;;;16.06;47.78
45071;BME280;30836;48.906;9.140;2023-04-25T01:17:30;979.82;;;16.05;47.84
45071;BME280;30836;48.906;9.140;2023-04-25T01:18:30;979.82;;;16.06;47.98
45071;BME280;30836;48.906;9.140;2023-04-25T01:19:31;979.84;;;16.07;47.91
45071;BME280;30836;48.906;9.140;2023-04-25T01:20:32;979.88;;;16.07;47.92
45071;BME280;30836;48.906;9.140;2023-04-25T01:21:33;979.90;;;16.10;47.78
45071;BME280;30836;48.906;9.140;2023-04-25T01:22:33;979.88;;;16.12;47.75
45071;BME280;30836;48.906;9.140;2023-04-25T01:23:34;979.86;;;16.13;47.63
45071;BME280;30836;48.906;9.140;2023-04-25T01:23:45;979.86;;;16.16;47.62
45071;BME280;30836;48.906;9.140;2023-04-25T01:24:45;979.86;;;16.19;47.51
45071;BME280;30836;48.906;9.140;2023-04-25T01:25:47;979.88;;;16.23;47.49
45071;BME280;30836;48.906;9.140;2023-04-25T01:26:48;979.86;;;16.26;47.51
45071;BME280;30836;48.906;9.140;2023-04-25T01:27:49;979.86;;;16.27;47.48
45071;BME280;30836;48.906;9.140;2023-04-25T01:28:50;979.80;;;16.28;47.55
45071;BME280;30836;48.906;9.140;2023-04-25T01:29:51;979.84;;;16.29;47.52
45071;BME280;30836;48.906;9.140;2023-04-25T01:30:54;979.80;;;16.29;47.35
45071;BME280;30836;48.906;9.140;2023-04-25T01:31:55;979.80;;;16.28;47.38
45071;BME280;30836;48.906;9.140;2023-04-25T01:32:55;979.82;;;16.29;47.37
45071;BME280;30836;48.906;9.140;2023-04-25T01:33:56;979.82;;;16.30;47.30
45071;BME280;30836;48.906;9.140;2023-04-25T01:34:57;979.82;;;16.29;47.31
45071;BME280;30836;48.906;9.140;2023-04-25T01:35:57;979.82;;;16.29;47.37
45071;BME280;30836;48.906;9.140;2023-04-25T01:36:59;979.82;;;16.31;47.26
45071;BME280;30836;48.906;9.140;2023-04-25T01:38:00;979.80;;;16.34;47.12
45071;BME280;30836;48.906;9.140;2023-04-25T01:39:01;979.80;;;16.35;47.11
45071;BME280;30836;48.906;9.140;2023-04-25T01:40:02;979.77;;;16.34;47.05
45071;BME280;30836;48.906;9.140;2023-04-25T01:41:03;979.77;;;16.34;47.14
45071;BME280;30836;48.906;9.140;2023-04-25T01:42:03;979.77;;;16.34;47.20
45071;BME280;30836;48.906;9.140;2023-04-25T01:43:04;979.78;;;16.35;47.05
45071;BME280;30836;48.906;9.140;2023-04-25T01:43:14;979.80;;;16.35;46.99
45071;BME280;30836;48.906;9.140;2023-04-25T01:44:15;979.82;;;16.34;46.95
45071;BME280;30836;48.906;9.140;2023-04-25T01:45:16;979.80;;;16.32;46.89
45071;BME280;30836;48.906;9.140;2023-04-25T01:46:17;979.80;;;16.30;46.92
45071;BME280;30836;48.906;9.140;2023-04-25T01:47:17;979.82;;;16.27;47.03
45071;BME280;30836;48.906;9.140;2023-04-25T01:48:18;979.82;;;16.24;47.07
45071;BME280;30836;48.906;9.140;2023-04-25T01:49:18;979.86;;;16.24;47.09
45071;BME280;30836;48.906;9.140;2023-04-25T01:50:19;979.86;;;16.23;47.09
45071;BME280;30836;48.906;9.140;2023-04-25T01:51:19;979.86;;;16.23;47.09
45071;BME280;30836;48.906;9.140;2023-04-25T01:52:20;979.82;;;16.22;47.22
45071;BME280;30836;48.906;9.140;2023-04-25T01:53:20;979.82;;;16.19;47.20
45071;BME280;30836;48.906;9.140;2023-04-25T01:54:21;979.82;;;16.19;47.11
45071;BME280;30836;48.906;9.140;2023-04-25T01:55:21;979.84;;;16.20;47.11
45071;BME280;30836;48.906;9.140;2023-04-25T01:56:22;979.84;;;16.20;47.19
45071;BME280;30836;48.906;9.140;2023-04-25T01:57:22;979.84;;;16.20;47.31
45071;BME280;30836;48.906;9.140;2023-04-25T01:58:23;979.84;;;16.22;47.17
45071;BME280;30836;48.906;9.140;2023-04-25T01:59:23;979.86;;;16.24;47.12
45071;BME280;30836;48.906;9.140;2023-04-25T02:00:24;979.88;;;16.25;47.17
45071;BME280;30836;48.906;9.140;2023-04-25T02:01:24;979.84;;;16.23;47.26
45071;BME280;30836;48.906;9.140;2023-04-25T02:02:24;979.86;;;16.24;47.17
45071;BME280;30836;48.906;9.140;2023-04-25T02:03:25;979.86;;;16.25;47.13
45071;BME280;30836;48.906;9.140;2023-04-25T02:04:26;979.84;;;16.27;47.09
45071;BME280;30836;48.906;9.140;2023-04-25T02:05:26;979.82;;;16.29;47.09
45071;BME280;30836;48.906;9.140;2023-04-25T02:06:27;979.82;;;16.32;46.98
45071;BME280;30836;48.906;9.140;2023-04-25T02:07:27;979.80;;;16.34;47.03
45071;BME280;30836;48.906;9.140;2023-04-25T02:08:28;979.78;;;16.35;46.90
45071;BME280;30836;48.906;9.140;2023-04-25T02:09:28;979.78;;;16.36;46.77
45071;BME280;30836;48.906;9.140;2023-04-25T02:10:28;979.80;;;16.36;46.74
45071;BME280;30836;48.906;9.140;2023-04-25T02:11:29;979.80;;;16.34;46.75
45071;BME280;30836;48.906;9.140;2023-04-25T02:12:31;979.84;;;16.28;46.80
45071;BME280;30836;48.906;9.140;2023-04-25T02:13:31;979.78;;;16.23;46.82
45071;BME280;30836;48.906;9.140;2023-04-25T02:14:32;979.78;;;16.20;46.90
45071;BME280;30836;48.906;9.140;2023-04-25T02:15:32;979.77;;;16.18;46.88
45071;BME280;30836;48.906;9.140;2023-04-25T02:16:33;979.77;;;16.17;46.90
45071;BME280;30836;48.906;9.140;2023-04-25T02:17:33;979.77;;;16.16;46.90
45071;BME280;30836;48.906;9.140;2023-04-25T02:18:34;979.77;;;16.15;47.09
45071;BME280;30836;48.906;9.140;2023-04-25T02:19:34;979.77;;;16.13;47.27
45071;BME280;30836;48.906;9.140;2023-04-25T02:20:35;979.77;;;16.11;47.33
45071;BME280;30836;48.906;9.140;2023-04-25T02:21:35;979.77;;;16.08;47.32
45071;BME280;30836;48.906;9.140;2023-04-25T02:22:36;979.77;;;16.04;47.42
45071;BME280;30836;48.906;9.140;2023-04-25T02:23:36;979.75;;;15.96;47.51
45071;BME280;30836;48.906;9.140;2023-04-25T02:24:37;979.75;;;15.87;47.67
45071;BME280;30836;48.906;9.140;2023-04-25T02:25:38;979.75;;;15.80;47.90
45071;BME280;30836;48.906;9.140;2023-04-25T02:26:38;979.73;;;15.74;48.00
45071;BME280;30836;48.906;9.140;2023-04-25T02:27:39;979.69;;;15.70;48.00
45071;BME280;30836;48.906;9.140;2023-04-25T02:28:39;979.69;;;15.68;48.02
45071;BME280;30836;48.906;9.140;2023-04-25T02:29:39;979.69;;;15.69;47.91
45071;BME280;30836;48.906;9.140;2023-04-25T02:30:40;979.69;;;15.71;47.84
45071;BME280;30836;48.906;9.140;2023-04-25T02:31:40;979.71;;;15.73;47.82
45071;BME280;30836;48.906;9.140;2023-04-25T02:32:41;979.69;;;15.72;47.84
45071;BME280;30836;48.906;9.140;2023-04-25T02:33:42;979.67;;;15.68;48.08
45071;BME280;30836;48.906;9.140;2023-04-25T02:34:43;979.65;;;15.65;48.04
45071;BME280;30836;48.906;9.140;2023-04-25T02:35:43;979.63;;;15.66;48.11
45071;BME280;30836;48.906;9.140;2023-04-25T02:36:44;979.65;;;15.64;48.10
45071;BME280;30836;48.906;9.140;2023-04-25T02:37:44;979.65;;;15.60;48.25
45071;BME280;30836;48.906;9.140;2023-04-25T02:38:45;979.69;;;15.58;48.20
45071;BME280;30836;48.906;9.140;2023-04-25T02:39:45;979.67;;;15.56;48.16
45071;BME280;30836;48.906;9.140;2023-04-25T02:40:45;979.65;;;15.53;48.44
45071;BME280;30836;48.906;9.140;2023-04-25T02:41:46;979.69;;;15.54;48.33
45071;BME280;30836;48.906;9.140;2023-04-25T02:42:46;979.67;;;15.57;48.26
45071;BME280;30836;48.906;9.140;2023-04-25T02:43:47;979.67;;;15.59;48.28
45071;BME280;30836;48.906;9.140;2023-04-25T02:44:47;979.67;;;15.60;48.28
45071;BME280;30836;48.906;9.140;2023-04-25T02:45:48;979.69;;;15.57;48.35
45071;BME280;30836;48.906;9.140;2023-04-25T02:46:48;979.67;;;15.54;48.34
45071;BME280;30836;48.906;9.140;2023-04-25T02:47:48;979.67;;;15.49;48.48
45071;BME280;30836;48.906;9.140;2023-04-25T02:48:49;979.67;;;15.46;48.40
45071;BME280;30836;48.906;9.140;2023-04-25T02:49:49;979.65;;;15.41;48.70
45071;BME280;30836;48.906;9.140;2023-04-25T02:50:50;979.65;;;15.36;48.71
45071;BME280;30836;48.906;9.140;2023-04-25T02:51:50;979.65;;;15.36;48.47
45071;BME280;30836;48.906;9.140;2023-04-25T02:52:51;979.67;;;15.39;48.49
45071;BME280;30836;48.906;9.140;2023-04-25T02:53:51;979.65;;;15.44;48.39
45071;BME280;30836;48.906;9.140;2023-04-25T02:54:52;979.65;;;15.48;48.34
45071;BME280;30836;48.906;9.140;2023-04-25T02:55:52;979.63;;;15.52;48.29
45071;BME280;30836;48.906;9.140;2023-04-25T02:56:53;979.65;;;15.55;48.24
45071;BME280;30836;48.906;9.140;2023-04-25T02:57:53;979.63;;;15.57;48.29
45071;BME280;30836;48.906;9.140;2023-04-25T02:58:53;979.59;;;15.55;48.18
45071;BME280;30836;48.906;9.140;2023-04-25T02:59:54;979.59;;;15.53;48.25
45071;BME280;30836;48.906;9.140;2023-04-25T03:00:54;979.57;;;15.52;48.32
45071;BME280;30836;48.906;9.140;2023-04-25T03:01:55;979.55;;;15.52;48.24
45071;BME280;30836;48.906;9.140;2023-04-25T03:02:55;979.47;;;15.50;48.33
45071;BME280;30836;48.906;9.140;2023-04-25T03:03:56;979.45;;;15.49;48.23
45071;BME280;30836;48.906;9.140;2023-04-25T03:04:56;979.45;;;15.50;48.14
45071;BME280;30836;48.906;9.140;2023-04-25T03:05:56;979.47;;;15.52;48.17
45071;BME280;30836;48.906;9.140;2023-04-25T03:06:57;979.47;;;15.55;48.07
45071;BME280;30836;48.906;9.140;2023-04-25T03:07:57;979.47;;;15.59;48.03
45071;BME280;30836;48.906;9.140;2023-04-25T03:08:58;979.43;;;15.64;48.00
45071;BME280;30836;48.906;9.140;2023-04-25T03:09:58;979.45;;;15.69;47.92
45071;BME280;30836;48.906;9.140;2023-04-25T03:10:59;979.43;;;15.70;47.89
45071;BME280;30836;48.906;9.140;2023-04-25T03:11:59;979.43;;;15.69;47.77
45071;BME280;30836;48.906;9.140;2023-04-25T03:12:59;979.45;;;15.70;47.68
45071;BME280;30836;48.906;9.140;2023-04-25T03:14:00;979.45;;;15.72;47.65
45071;BME280;30836;48.906;9.140;2023-04-25T03:15:00;979.43;;;15.73;47.54
45071;BME280;30836;48.906;9.140;2023-04-25T03:16:01;979.43;;;15.71;47.58
45071;BME280;30836;48.906;9.140;2023-04-25T03:17:01;979.41;;;15.68;47.52
45071;BME280;30836;48.906;9.140;2023-04-25T03:18:02;979.39;;;15.65;47.36
45071;BME280;30836;48.906;9.140;2023-04-25T03:19:03;979.43;;;15.61;47.40
45071;BME280;30836;48.906;9.140;2023-04-25T03:20:04;979.43;;;15.57;47.49
45071;BME280;30836;48.906;9.140;2023-04-25T03:21:05;979.41;;;15.58;47.34
45071;BME280;30836;48.906;9.140;2023-04-25T03:22:05;979.43;;;15.61;47.13
45071;BME280;30836;48.906;9.140;2023-04-25T03:23:06;979.41;;;15.63;47.16
45071;BME280;30836;48.906;9.140;2023-04-25T03:24:06;979.43;;;15.68;47.16
45071;BME280;30836;48.906;9.140;2023-04-25T03:25:07;979.45;;;15.78;46.88
45071;BME280;30836;48.906;9.140;2023-04-25T03:26:08;979.41;;;15.90;46.69
45071;BME280;30836;48.906;9.140;2023-04-25T03:27:08;979.43;;;16.03;46.50
45071;BME280;30836;48.906;9.140;2023-04-25T03:28:09;979.41;;;16.13;46.31
45071;BME280;30836;48.906;9.140;2023-04-25T03:29:09;979.37;;;16.19;46.17
45071;BME280;30836;48.906;9.140;2023-04-25T03:30:10;979.41;;;16.22;46.05
45071;BME280;30836;48.906;9.140;2023-04-25T03:31:10;979.43;;;16.25;46.03
45071;BME280;30836;48.906;9.140;2023-04-25T03:32:11;979.41;;;16.29;46.03
45071;BME280;30836;48.906;9.140;2023-04-25T03:33:11;979.43;;;16.31;45.94
45071;BME280;30836;48.906;9.140;2023-04-25T03:34:12;979.41;;;16.31;46.06
45071;BME280;30836;48.906;9.140;2023-04-25T03:35:12;979.43;;;16.35;45.88
45071;BME280;30836;48.906;9.140;2023-04-25T03:36:13;979.43;;;16.40;45.74
45071;BME280;30836;48.906;9.140;2023-04-25T03:37:13;979.47;;;16.40;45.58
45071;BME280;30836;48.906;9.140;2023-04-25T03:38:14;979.45;;;16.29;46.02
45071;BME280;30836;48.906;9.140;2023-04-25T03:39:14;979.41;;;16.18;45.88
45071;BME280;30836;48.906;9.140;2023-04-25T03:40:15;979.41;;;16.13;46.17
45071;BME280;30836;48.906;9.140;2023-04-25T03:41:15;979.47;;;16.03;46.30
45071;BME280;30836;48.906;9.140;2023-04-25T03:42:16;979.43;;;15.93;46.47
45071;BME280;30836;48.906;9.140;2023-04-25T03:43:16;979.41;;;15.85;46.38
45071;BME280;30836;48.906;9.140;2023-04-25T03:44:17;979.39;;;15.73;46.58
45071;BME280;30836;48.906;9.140;2023-04-25T03:45:17;979.39;;;15.65;46.57
45071;BME280;30836;48.906;9.140;2023-04-25T03:46:17;979.37;;;15.67;46.46
45071;BME280;30836;48.906;9.140;2023-04-25T03:47:18;979.35;;;15.71;46.28
45071;BME280;30836;48.906;9.140;2023-04-25T03:48:18;979.35;;;15.77;46.23
45071;BME280;30836;48.906;9.140;2023-04-25T03:49:19;979.35;;;15.79;46.44
45071;BME280;30836;48.906;9.140;2023-04-25T03:50:19;979.35;;;15.77;46.46
45071;BME280;30836;48.906;9.140;2023-04-25T03:51:20;979.33;;;15.76;46.46
45071;BME280;30836;48.906;9.140;2023-04-25T03:52:20;979.35;;;15.72;46.53
45071;BME280;30836;48.906;9.140;2023-04-25T03:53:21;979.35;;;15.72;46.42
45071;BME280;30836;48.906;9.140;2023-04-25T03:54:21;979.37;;;15.74;46.45
45071;BME280;30836;48.906;9.140;2023-04-25T03:55:21;979.39;;;15.77;46.31
45071;BME280;30836;48.906;9.140;2023-04-25T03:56:22;979.39;;;15.79;46.38
45071;BME280;30836;48.906;9.140;2023-04-25T03:57:22;979.41;;;15.77;46.43
45071;BME280;30836;48.906;9.140;2023-04-25T03:58:23;979.43;;;15.73;46.45
45071;BME280;30836;48.906;9.140;2023-04-25T03:59:23;979.41;;;15.74;46.46
45071;BME280;30836;48.906;9.140;2023-04-25T04:00:24;979.43;;;15.77;46.45
45071;BME280;30836;48.906;9.140;2023-04-25T04:01:25;979.43;;;15.79;46.38
45071;BME280;30836;48.906;9.140;2023-04-25T04:02:26;979.43;;;15.81;46.41
45071;BME280;30836;48.906;9.140;2023-04-25T04:03:26;979.45;;;15.83;46.36
45071;BME280;30836;48.906;9.140;2023-04-25T04:04:26;979.45;;;15.84;46.57
45071;BME280;30836;48.906;9.140;2023-04-25T04:05:27;979.43;;;15.79;46.71
45071;BME280;30836;48.906;9.140;2023-04-25T04:06:27;979.39;;;15.70;47.08
45071;BME280;30836;48.906;9.140;2023-04-25T04:07:28;979.41;;;15.69;46.77
45071;BME280;30836;48.906;9.140;2023-04-25T04:08:28;979.41;;;15.75;46.73
45071;BME280;30836;48.906;9.140;2023-04-25T04:09:29;979.41;;;15.79;46.55
45071;BME280;30836;48.906;9.140;2023-04-25T04:10:29;979.43;;;15.82;46.64
45071;BME280;30836;48.906;9.140;2023-04-25T04:11:30;979.43;;;15.85;46.55
45071;BME280;30836;48.906;9.140;2023-04-25T04:12:30;979.43;;;15.86;46.67
45071;BME280;30836;48.906;9.140;2023-04-25T04:13:30;979.39;;;15.83;46.70
45071;BME280;30836;48.906;9.140;2023-04-25T04:14:31;979.41;;;15.79;46.95
45071;BME280;30836;48.906;9.140;2023-04-25T04:15:31;979.41;;;15.75;46.85
45071;BME280;30836;48.906;9.140;2023-04-25T04:16:32;979.41;;;15.73;47.09
45071;BME280;30836;48.906;9.140;2023-04-25T04:17:32;979.41;;;15.71;47.10
45071;BME280;30836;48.906;9.140;2023-04-25T04:18:33;979.41;;;15.75;46.85
45071;BME280;30836;48.906;9.140;2023-04-25T04:19:33;979.43;;;15.82;46.78
45071;BME280;30836;48.906;9.140;2023-04-25T04:20:34;979.43;;;15.86;46.71
45071;BME280;30836;48.906;9.140;2023-04-25T04:21:34;979.43;;;15.85;46.79
45071;BME280;30836;48.906;9.140;2023-04-25T04:22:34;979.39;;;15.80;46.93
45071;BME280;30836;48.906;9.140;2023-04-25T04:23:35;979.43;;;15.72;47.07
45071;BME280;30836;48.906;9.140;2023-04-25T04:24:35;979.45;;;15.62;47.30
45071;BME280;30836;48.906;9.140;2023-04-25T04:25:36;979.45;;;15.59;47.27
45071;BME280;30836;48.906;9.140;2023-04-25T04:26:37;979.45;;;15.56;47.37
45071;BME280;30836;48.906;9.140;2023-04-25T04:27:37;979.47;;;15.50;47.59
45071;BME280;30836;48.906;9.140;2023-04-25T04:28:38;979.55;;;15.46;47.56
45071;BME280;30836;48.906;9.140;2023-04-25T04:29:38;979.57;;;15.45;47.54
45071;BME280;30836;48.906;9.140;2023-04-25T04:30:39;979.57;;;15.44;47.63
45071;BME280;30836;48.906;9.140;2023-04-25T04:31:39;979.55;;;15.45;47.53
45071;BME280;30836;48.906;9.140;2023-04-25T04:32:40;979.43;;;15.51;47.33
45071;BME280;30836;48.906;9.140;2023-04-25T04:33:40;979.45;;;15.59;47.08
45071;BME280;30836;48.906;9.140;2023-04-25T04:34:40;979.43;;;15.68;46.88
45071;BME280;30836;48.906;9.140;2023-04-25T04:35:41;979.43;;;15.78;46.73
45071;BME280;30836;48.906;9.140;2023-04-25T04:36:41;979.41;;;15.82;46.76
45071;BME280;30836;48.906;9.140;2023-04-25T04:37:42;979.45;;;15.83;46.71
45071;BME280;30836;48.906;9.140;2023-04-25T04:38:42;979.43;;;15.87;46.66
45071;BME280;30836;48.906;9.140;2023-04-25T04:39:43;979.47;;;15.93;46.66
45071;BME280;30836;48.906;9.140;2023-04-25T04:40:43;979.55;;;15.98;46.65
45071;BME280;30836;48.906;9.140;2023-04-25T04:41:44;979.55;;;16.01;46.67
45071;BME280;30836;48.906;9.140;2023-04-25T04:42:44;979.55;;;16.03;46.65
45071;BME280;30836;48.906;9.140;2023-04-25T04:43:45;979.47;;;16.07;46.58
45071;BME280;30836;48.906;9.140;2023-04-25T04:44:45;979.59;;;16.11;46.48
45071;BME280;30836;48.906;9.140;2023-04-25T04:45:45;979.63;;;16.15;46.40
45071;BME280;30836;48.906;9.140;2023-04-25T04:46:46;979.65;;;16.18;46.42
45071;BME280;30836;48.906;9.140;2023-04-25T04:47:46;979.65;;;16.14;46.55
45071;BME280;30836;48.906;9.140;2023-04-25T04:48:47;979.69;;;16.08;46.46
45071;BME280;30836;48.906;9.140;2023-04-25T04:49:47;979.73;;;16.09;46.31
45071;BME280;30836;48.906;9.140;2023-04-25T04:50:48;979.71;;;16.07;46.65
45071;BME280;30836;48.906;9.140;2023-04-25T04:51:48;979.69;;;15.98;46.71
45071;BME280;30836;48.906;9.140;2023-04-25T04:52:48;979.73;;;15.95;46.54
45071;BME280;30836;48.906;9.140;2023-04-25T04:53:49;979.69;;;16.00;46.33
45071;BME280;30836;48.906;9.140;2023-04-25T04:54:49;979.69;;;16.04;46.22
45071;BME280;30836;48.906;9.140;2023-04-25T04:55:50;979.71;;;16.05;46.16
45071;BME280;30836;48.906;9.140;2023-04-25T04:56:50;979.71;;;16.06;45.99
45071;BME280;30836;48.906;9.140;2023-04-25T04:57:51;979.71;;;16.09;45.99
45071;BME280;30836;48.906;9.140;2023-04-25T04:58:51;979.75;;;16.09;45.89
45071;BME280;30836;48.906;9.140;2023-04-25T04:59:52;979.78;;;16.09;45.87
45071;BME280;30836;48.906;9.140;2023-04-25T05:00:52;979.78;;;16.13;45.80
45071;BME280;30836;48.906;9.140;2023-04-25T05:01:53;979.80;;;16.17;45.70
45071;BME280;30836;48.906;9.140;2023-04-25T05:02:53;979.84;;;16.16;45.68
45071;BME280;30836;48.906;9.140;2023-04-25T05:03:53;979.80;;;16.10;45.89
45071;BME280;30836;48.906;9.140;2023-04-25T05:04:55;979.84;;;16.01;45.93
45071;BME280;30836;48.906;9.140;2023-04-25T05:05:56;979.82;;;15.97;45.87
45071;BME280;30836;48.906;9.140;2023-04-25T05:06:56;979.82;;;15.96;45.78
45071;BME280;30836;48.906;9.140;2023-04-25T05:07:57;979.82;;;15.93;45.99
45071;BME280;30836;48.906;9.140;2023-04-25T05:08:57;979.82;;;15.91;45.93
45071;BME280;30836;48.906;9.140;2023-04-25T05:09:58;979.86;;;15.89;46.27
45071;BME280;30836;48.906;9.140;2023-04-25T05:10:58;979.86;;;15.87;46.37
45071;BME280;30836;48.906;9.140;2023-04-25T05:11:59;979.88;;;15.86;46.44
45071;BME280;30836;48.906;9.140;2023-04-25T05:12:59;979.86;;;15.88;46.26
45071;BME280;30836;48.906;9.140;2023-04-25T05:13:59;979.92;;;15.94;46.07
45071;BME280;30836;48.906;9.140;2023-04-25T05:15:00;979.92;;;16.02;45.82
45071;BME280;30836;48.906;9.140;2023-04-25T05:16:00;979.92;;;16.09;45.68
45071;BME280;30836;48.906;9.140;2023-04-25T05:17:01;979.90;;;16.05;45.74
45071;BME280;30836;48.906;9.140;2023-04-25T05:18:01;979.90;;;15.90;46.09
45071;BME280;30836;48.906;9.140;2023-04-25T05:19:02;979.88;;;15.90;45.63
45071;BME280;30836;48.906;9.140;2023-04-25T05:20:02;979.90;;;15.98;45.61
45071;BME280;30836;48.906;9.140;2023-04-25T05:21:03;979.90;;;16.07;45.53
45071;BME280;30836;48.906;9.140;2023-04-25T05:22:04;979.90;;;16.14;45.54
45071;BME280;30836;48.906;9.140;2023-04-25T05:23:04;979.88;;;16.17;45.35
45071;BME280;30836;48.906;9.140;2023-04-25T05:24:05;979.88;;;16.21;45.15
45071;BME280;30836;48.906;9.140;2023-04-25T05:25:05;979.84;;;16.26;45.12
45071;BME280;30836;48.906;9.140;2023-04-25T05:26:06;979.82;;;16.31;45.06
45071;BME280;30836;48.906;9.140;2023-04-25T05:27:06;979.80;;;16.34;44.94